sensor_id;sensor_type;location;lat;lon;timestamp;temperature;humidity
37754;DHT22;23596;52.520;13.464;2023-05-10T00:00:39;14.90;75.30
37754;DHT22;23596;52.520;13.464;2023-05-10T00:03:04;14.80;75.50
37754;DHT22;23596;52.520;13.464;2023-05-10T00:05:31;14.80;75.50
37754;DHT22;23596;52.520;13.464;2023-05-10T00:07:56;14.80;75.80
37754;DHT22;23596;52.520;13.464;2023-05-10T00:10:22;14.70;75.80
37754;DHT22;23596;52.520;13.464;2023-05-10T00:12:48;14.70;75.70
37754;DHT22;23596;52.520;13.464;2023-05-10T00:15:13;14.70;76.40
37754;DHT22;23596;52.520;13.464;2023-05-10T00:17:39;14.60;76.10
37754;DHT22;23596;52.520;13.464;2023-05-10T00:20:05;14.60;76.30
37754;DHT22;23596;52.520;13.464;2023-05-10T00:22:31;14.60;76.40
37754;DHT22;23596;52.520;13.464;2023-05-10T00:24:58;14.50;77.00
37754;DHT22;23596;52.520;13.464;2023-05-10T00:27:23;14.50;77.40
37754;DHT22;23596;52.520;13.464;2023-05-10T00:29:49;14.40;77.10
37754;DHT22;23596;52.520;13.464;2023-05-10T00:32:15;14.30;77.30
37754;DHT22;23596;52.520;13.464;2023-05-10T00:34:41;14.30;77.50
37754;DHT22;23596;52.520;13.464;2023-05-10T00:37:06;14.20;77.70
37754;DHT22;23596;52.520;13.464;2023-05-10T00:39:32;14.20;78.20
37754;DHT22;23596;52.520;13.464;2023-05-10T00:41:58;14.20;78.30
37754;DHT22;23596;52.520;13.464;2023-05-10T00:44:23;14.10;78.30
37754;DHT22;23596;52.520;13.464;2023-05-10T00:46:49;14.10;78.90
37754;DHT22;23596;52.520;13.464;2023-05-10T00:49:15;14.00;78.60
37754;DHT22;23596;52.520;13.464;2023-05-10T00:51:41;13.90;78.90
37754;DHT22;23596;52.520;13.464;2023-05-10T00:54:10;14.80;79.70
37754;DHT22;23596;52.520;13.464;2023-05-10T00:56:37;13.90;79.50
37754;DHT22;23596;52.520;13.464;2023-05-10T00:59:03;13.80;79.70
37754;DHT22;23596;52.520;13.464;2023-05-10T01:01:29;13.80;79.90
37754;DHT22;23596;52.520;13.464;2023-05-10T01:03:55;13.70;80.30
37754;DHT22;23596;52.520;13.464;2023-05-10T01:06:21;13.70;80.50
37754;DHT22;23596;52.520;13.464;2023-05-10T01:08:47;13.60;80.80
37754;DHT22;23596;52.520;13.464;2023-05-10T01:11:13;13.60;81.10
37754;DHT22;23596;52.520;13.464;2023-05-10T01:13:41;13.60;81.40
37754;DHT22;23596;52.520;13.464;2023-05-10T01:16:08;13.50;81.60
37754;DHT22;23596;52.520;13.464;2023-05-10T01:18:38;13.50;81.90
37754;DHT22;23596;52.520;13.464;2023-05-10T01:21:33;13.40;82.30
37754;DHT22;23596;52.520;13.464;2023-05-10T01:24:18;13.30;82.80
37754;DHT22;23596;52.520;13.464;2023-05-10T01:27:02;13.30;83.20
37754;DHT22;23596;52.520;13.464;2023-05-10T01:43:28;13.10;84.80
37754;DHT22;23596;52.520;13.464;2023-05-10T01:46:00;13.10;85.10
37754;DHT22;23596;52.520;13.464;2023-05-10T01:48:30;13.10;85.10
37754;DHT22;23596;52.520;13.464;2023-05-10T01:50:57;13.10;85.30
37754;DHT22;23596;52.520;13.464;2023-05-10T01:53:24;13.00;85.60
37754;DHT22;23596;52.520;13.464;2023-05-10T01:55:52;13.00;85.70
37754;DHT22;23596;52.520;13.464;2023-05-10T01:58:22;13.00;86.10
37754;DHT22;23596;52.520;13.464;2023-05-10T02:00:49;13.00;85.90
37754;DHT22;23596;52.520;13.464;2023-05-10T02:03:18;12.90;86.30
37754;DHT22;23596;52.520;13.464;2023-05-10T02:05:46;12.90;86.60
37754;DHT22;23596;52.520;13.464;2023-05-10T02:08:13;12.90;86.80
37754;DHT22;23596;52.520;13.464;2023-05-10T02:10:41;12.80;87.20
37754;DHT22;23596;52.520;13.464;2023-05-10T02:13:08;12.80;87.70
37754;DHT22;23596;52.520;13.464;2023-05-10T02:15:36;12.70;87.70
37754;DHT22;23596;52.520;13.464;2023-05-10T02:18:04;12.70;88.20
37754;DHT22;23596;52.520;13.464;2023-05-10T02:20:31;12.60;88.20
37754;DHT22;23596;52.520;13.464;2023-05-10T02:22:57;12.70;88.50
37754;DHT22;23596;52.520;13.464;2023-05-10T02:25:24;12.60;88.40
37754;DHT22;23596;52.520;13.464;2023-05-10T02:27:51;12.60;88.40
37754;DHT22;23596;52.520;13.464;2023-05-10T02:30:19;12.70;88.70
37754;DHT22;23596;52.520;13.464;2023-05-10T02:32:45;12.60;88.70
37754;DHT22;23596;52.520;13.464;2023-05-10T02:35:12;12.60;88.80
37754;DHT22;23596;52.520;13.464;2023-05-10T02:37:39;12.60;89.00
37754;DHT22;23596;52.520;13.464;2023-05-10T02:40:06;12.50;89.20
37754;DHT22;23596;52.520;13.464;2023-05-10T02:42:35;12.50;89.40
37754;DHT22;23596;52.520;13.464;2023-05-10T02:45:02;12.40;89.60
37754;DHT22;23596;52.520;13.464;2023-05-10T02:47:29;12.40;89.80
37754;DHT22;23596;52.520;13.464;2023-05-10T02:49:55;12.40;90.00
37754;DHT22;23596;52.520;13.464;2023-05-10T02:52:27;12.40;90.10
37754;DHT22;23596;52.520;13.464;2023-05-10T02:54:55;12.40;90.10
37754;DHT22;23596;52.520;13.464;2023-05-10T02:57:31;12.30;90.10
37754;DHT22;23596;52.520;13.464;2023-05-10T02:59:57;12.30;90.30
37754;DHT22;23596;52.520;13.464;2023-05-10T03:02:23;12.20;90.30
37754;DHT22;23596;52.520;13.464;2023-05-10T03:04:49;12.20;90.40
37754;DHT22;23596;52.520;13.464;2023-05-10T03:07:15;12.10;90.50
37754;DHT22;23596;52.520;13.464;2023-05-10T03:09:42;12.10;90.50
37754;DHT22;23596;52.520;13.464;2023-05-10T03:20:24;12.00;90.90
37754;DHT22;23596;52.520;13.464;2023-05-10T03:23:02;12.00;91.00
37754;DHT22;23596;52.520;13.464;2023-05-10T03:25:29;12.00;91.00
37754;DHT22;23596;52.520;13.464;2023-05-10T03:27:56;12.00;91.00
37754;DHT22;23596;52.520;13.464;2023-05-10T03:30:22;12.00;91.00
37754;DHT22;23596;52.520;13.464;2023-05-10T03:32:48;12.00;91.00
37754;DHT22;23596;52.520;13.464;2023-05-10T03:35:14;12.00;91.20
37754;DHT22;23596;52.520;13.464;2023-05-10T03:37:39;12.00;91.40
37754;DHT22;23596;52.520;13.464;2023-05-10T03:40:06;11.90;91.20
37754;DHT22;23596;52.520;13.464;2023-05-10T03:42:32;11.90;91.20
37754;DHT22;23596;52.520;13.464;2023-05-10T03:44:57;11.90;91.30
37754;DHT22;23596;52.520;13.464;2023-05-10T03:47:23;12.40;91.50
37754;DHT22;23596;52.520;13.464;2023-05-10T03:49:49;11.90;91.40
37754;DHT22;23596;52.520;13.464;2023-05-10T03:52:14;11.90;91.60
37754;DHT22;23596;52.520;13.464;2023-05-10T03:54:40;11.80;91.50
37754;DHT22;23596;52.520;13.464;2023-05-10T03:57:06;11.90;91.60
37754;DHT22;23596;52.520;13.464;2023-05-10T03:59:31;11.90;91.60
37754;DHT22;23596;52.520;13.464;2023-05-10T04:01:57;11.90;91.70
37754;DHT22;23596;52.520;13.464;2023-05-10T04:04:23;11.90;91.60
37754;DHT22;23596;52.520;13.464;2023-05-10T04:06:48;11.90;91.60
37754;DHT22;23596;52.520;13.464;2023-05-10T04:09:14;11.90;91.70
37754;DHT22;23596;52.520;13.464;2023-05-10T04:11:40;12.00;91.80
37754;DHT22;23596;52.520;13.464;2023-05-10T04:14:06;12.00;91.70
37754;DHT22;23596;52.520;13.464;2023-05-10T04:16:31;12.00;91.60
37754;DHT22;23596;52.520;13.464;2023-05-10T04:18:57;12.00;91.60
37754;DHT22;23596;52.520;13.464;2023-05-10T04:21:23;12.00;91.60
37754;DHT22;23596;52.520;13.464;2023-05-10T04:23:48;12.00;91.50
37754;DHT22;23596;52.520;13.464;2023-05-10T04:26:14;12.10;91.60
37754;DHT22;23596;52.520;13.464;2023-05-10T04:28:40;12.00;91.70
37754;DHT22;23596;52.520;13.464;2023-05-10T04:31:07;12.10;91.70
37754;DHT22;23596;52.520;13.464;2023-05-10T04:33:33;12.00;91.50
37754;DHT22;23596;52.520;13.464;2023-05-10T04:36:00;12.00;91.60
37754;DHT22;23596;52.520;13.464;2023-05-10T04:38:26;12.10;91.70
37754;DHT22;23596;52.520;13.464;2023-05-10T04:40:52;12.00;91.60
37754;DHT22;23596;52.520;13.464;2023-05-10T04:43:18;12.00;91.80
37754;DHT22;23596;52.520;13.464;2023-05-10T04:45:43;12.00;91.80
37754;DHT22;23596;52.520;13.464;2023-05-10T04:48:09;12.10;91.70
37754;DHT22;23596;52.520;13.464;2023-05-10T04:50:36;12.10;91.80
37754;DHT22;23596;52.520;13.464;2023-05-10T04:53:01;12.20;92.00
37754;DHT22;23596;52.520;13.464;2023-05-10T04:55:27;12.20;91.80
37754;DHT22;23596;52.520;13.464;2023-05-10T04:57:53;12.20;91.80
37754;DHT22;23596;52.520;13.464;2023-05-10T05:00:20;12.20;91.90
37754;DHT22;23596;52.520;13.464;2023-05-10T05:02:46;12.20;91.90
37754;DHT22;23596;52.520;13.464;2023-05-10T05:05:12;12.30;91.80
37754;DHT22;23596;52.520;13.464;2023-05-10T05:07:38;12.30;91.90
37754;DHT22;23596;52.520;13.464;2023-05-10T05:10:05;12.30;91.80
37754;DHT22;23596;52.520;13.464;2023-05-10T05:12:31;12.40;91.70
37754;DHT22;23596;52.520;13.464;2023-05-10T05:14:57;12.50;91.60
37754;DHT22;23596;52.520;13.464;2023-05-10T05:17:22;12.50;91.70
37754;DHT22;23596;52.520;13.464;2023-05-10T05:19:48;12.60;92.10
37754;DHT22;23596;52.520;13.464;2023-05-10T05:22:13;12.60;91.90
37754;DHT22;23596;52.520;13.464;2023-05-10T05:24:39;12.70;92.00
37754;DHT22;23596;52.520;13.464;2023-05-10T05:27:05;12.80;91.60
37754;DHT22;23596;52.520;13.464;2023-05-10T05:29:31;12.80;91.30
37754;DHT22;23596;52.520;13.464;2023-05-10T05:31:57;12.90;91.40
37754;DHT22;23596;52.520;13.464;2023-05-10T05:34:22;12.90;91.40
37754;DHT22;23596;52.520;13.464;2023-05-10T05:36:48;12.90;91.60
37754;DHT22;23596;52.520;13.464;2023-05-10T05:39:14;12.90;91.30
37754;DHT22;23596;52.520;13.464;2023-05-10T05:41:39;12.90;91.20
37754;DHT22;23596;52.520;13.464;2023-05-10T05:44:05;13.00;91.40
37754;DHT22;23596;52.520;13.464;2023-05-10T05:46:30;13.00;91.30
37754;DHT22;23596;52.520;13.464;2023-05-10T05:48:56;13.00;91.50
37754;DHT22;23596;52.520;13.464;2023-05-10T05:51:22;13.10;91.50
37754;DHT22;23596;52.520;13.464;2023-05-10T05:53:48;13.10;91.30
37754;DHT22;23596;52.520;13.464;2023-05-10T05:56:13;13.20;91.50
37754;DHT22;23596;52.520;13.464;2023-05-10T05:58:39;13.20;91.30
37754;DHT22;23596;52.520;13.464;2023-05-10T06:01:04;13.30;91.30
37754;DHT22;23596;52.520;13.464;2023-05-10T06:03:30;13.30;91.20
37754;DHT22;23596;52.520;13.464;2023-05-10T06:05:56;13.40;91.50
37754;DHT22;23596;52.520;13.464;2023-05-10T06:08:21;13.40;91.50
37754;DHT22;23596;52.520;13.464;2023-05-10T06:10:47;13.50;91.30
37754;DHT22;23596;52.520;13.464;2023-05-10T06:13:13;13.50;91.60
37754;DHT22;23596;52.520;13.464;2023-05-10T06:15:39;13.60;91.50
37754;DHT22;23596;52.520;13.464;2023-05-10T06:18:04;13.60;91.50
37754;DHT22;23596;52.520;13.464;2023-05-10T06:20:31;13.70;91.30
37754;DHT22;23596;52.520;13.464;2023-05-10T06:22:57;13.70;91.40
37754;DHT22;23596;52.520;13.464;2023-05-10T06:25:23;13.80;91.10
37754;DHT22;23596;52.520;13.464;2023-05-10T06:27:49;13.90;91.30
37754;DHT22;23596;52.520;13.464;2023-05-10T06:30:15;13.90;90.80
37754;DHT22;23596;52.520;13.464;2023-05-10T06:32:41;14.00;90.80
37754;DHT22;23596;52.520;13.464;2023-05-10T06:35:07;14.00;90.80
37754;DHT22;23596;52.520;13.464;2023-05-10T06:37:33;14.10;90.80
37754;DHT22;23596;52.520;13.464;2023-05-10T06:39:59;14.10;90.60
37754;DHT22;23596;52.520;13.464;2023-05-10T06:42:26;14.10;90.60
37754;DHT22;23596;52.520;13.464;2023-05-10T06:44:52;14.30;90.70
37754;DHT22;23596;52.520;13.464;2023-05-10T06:47:18;14.30;90.60
37754;DHT22;23596;52.520;13.464;2023-05-10T06:49:44;14.30;90.60
37754;DHT22;23596;52.520;13.464;2023-05-10T06:52:09;14.30;90.40
37754;DHT22;23596;52.520;13.464;2023-05-10T06:54:35;14.40;90.70
37754;DHT22;23596;52.520;13.464;2023-05-10T06:57:00;14.50;90.60
37754;DHT22;23596;52.520;13.464;2023-05-10T06:59:28;14.50;90.50
37754;DHT22;23596;52.520;13.464;2023-05-10T07:01:53;14.50;90.50
37754;DHT22;23596;52.520;13.464;2023-05-10T07:04:19;14.60;90.30
37754;DHT22;23596;52.520;13.464;2023-05-10T07:06:45;14.60;90.60
37754;DHT22;23596;52.520;13.464;2023-05-10T07:09:11;14.60;90.50
37754;DHT22;23596;52.520;13.464;2023-05-10T07:11:38;14.70;90.40
37754;DHT22;23596;52.520;13.464;2023-05-10T07:14:04;14.70;90.60
37754;DHT22;23596;52.520;13.464;2023-05-10T07:16:29;14.80;90.60
37754;DHT22;23596;52.520;13.464;2023-05-10T07:18:55;14.80;90.40
37754;DHT22;23596;52.520;13.464;2023-05-10T07:21:21;14.80;90.60
37754;DHT22;23596;52.520;13.464;2023-05-10T07:23:49;14.90;90.60
37754;DHT22;23596;52.520;13.464;2023-05-10T07:26:15;14.90;90.70
37754;DHT22;23596;52.520;13.464;2023-05-10T07:28:41;15.00;90.60
37754;DHT22;23596;52.520;13.464;2023-05-10T07:31:06;15.00;90.40
37754;DHT22;23596;52.520;13.464;2023-05-10T07:33:32;15.10;90.30
37754;DHT22;23596;52.520;13.464;2023-05-10T07:35:57;15.10;90.20
37754;DHT22;23596;52.520;13.464;2023-05-10T07:38:23;15.20;90.30
37754;DHT22;23596;52.520;13.464;2023-05-10T07:40:49;15.20;90.20
37754;DHT22;23596;52.520;13.464;2023-05-10T07:43:14;15.20;90.30
37754;DHT22;23596;52.520;13.464;2023-05-10T07:45:40;15.30;90.40
37754;DHT22;23596;52.520;13.464;2023-05-10T07:48:05;15.40;90.40
37754;DHT22;23596;52.520;13.464;2023-05-10T07:50:31;15.40;90.30
37754;DHT22;23596;52.520;13.464;2023-05-10T07:52:57;15.50;90.40
37754;DHT22;23596;52.520;13.464;2023-05-10T07:55:22;15.50;90.30
37754;DHT22;23596;52.520;13.464;2023-05-10T07:57:48;15.60;90.20
37754;DHT22;23596;52.520;13.464;2023-05-10T08:00:17;15.60;90.00
37754;DHT22;23596;52.520;13.464;2023-05-10T08:02:43;15.70;90.00
37754;DHT22;23596;52.520;13.464;2023-05-10T08:05:09;15.80;89.90
37754;DHT22;23596;52.520;13.464;2023-05-10T08:07:35;15.80;90.00
37754;DHT22;23596;52.520;13.464;2023-05-10T08:10:01;15.80;89.70
37754;DHT22;23596;52.520;13.464;2023-05-10T08:12:26;15.80;89.90
37754;DHT22;23596;52.520;13.464;2023-05-10T08:14:52;15.90;89.80
37754;DHT22;23596;52.520;13.464;2023-05-10T08:17:17;16.00;89.70
37754;DHT22;23596;52.520;13.464;2023-05-10T08:19:43;16.00;89.90
37754;DHT22;23596;52.520;13.464;2023-05-10T08:22:08;16.10;89.60
37754;DHT22;23596;52.520;13.464;2023-05-10T08:24:34;16.20;89.20
37754;DHT22;23596;52.520;13.464;2023-05-10T08:27:04;16.30;88.80
37754;DHT22;23596;52.520;13.464;2023-05-10T08:29:30;16.30;88.00
37754;DHT22;23596;52.520;13.464;2023-05-10T08:31:56;16.40;88.70
37754;DHT22;23596;52.520;13.464;2023-05-10T08:34:21;16.50;88.60
37754;DHT22;23596;52.520;13.464;2023-05-10T08:36:47;16.50;88.30
37754;DHT22;23596;52.520;13.464;2023-05-10T08:39:12;16.60;88.10
37754;DHT22;23596;52.520;13.464;2023-05-10T08:41:39;16.60;88.80
37754;DHT22;23596;52.520;13.464;2023-05-10T08:44:08;16.70;88.30
37754;DHT22;23596;52.520;13.464;2023-05-10T08:46:33;16.70;87.80
37754;DHT22;23596;52.520;13.464;2023-05-10T08:49:06;16.70;87.80
37754;DHT22;23596;52.520;13.464;2023-05-10T08:51:37;16.80;88.10
37754;DHT22;23596;52.520;13.464;2023-05-10T08:54:06;17.00;87.00
37754;DHT22;23596;52.520;13.464;2023-05-10T08:56:32;17.00;86.90
37754;DHT22;23596;52.520;13.464;2023-05-10T08:58:57;17.10;86.20
37754;DHT22;23596;52.520;13.464;2023-05-10T09:01:24;17.10;85.80
37754;DHT22;23596;52.520;13.464;2023-05-10T09:03:50;17.20;86.10
37754;DHT22;23596;52.520;13.464;2023-05-10T09:06:16;17.20;86.00
37754;DHT22;23596;52.520;13.464;2023-05-10T09:08:42;17.30;85.80
37754;DHT22;23596;52.520;13.464;2023-05-10T09:11:09;17.30;85.80
37754;DHT22;23596;52.520;13.464;2023-05-10T09:13:36;17.30;86.10
37754;DHT22;23596;52.520;13.464;2023-05-10T09:16:02;17.40;86.70
37754;DHT22;23596;52.520;13.464;2023-05-10T09:18:28;17.50;85.40
37754;DHT22;23596;52.520;13.464;2023-05-10T09:20:54;17.50;85.60
37754;DHT22;23596;52.520;13.464;2023-05-10T09:23:20;17.60;85.30
37754;DHT22;23596;52.520;13.464;2023-05-10T09:25:46;17.70;84.70
37754;DHT22;23596;52.520;13.464;2023-05-10T09:28:12;17.80;85.20
37754;DHT22;23596;52.520;13.464;2023-05-10T09:30:38;17.80;84.70
37754;DHT22;23596;52.520;13.464;2023-05-10T09:33:04;17.80;84.50
37754;DHT22;23596;52.520;13.464;2023-05-10T09:35:31;17.90;84.60
37754;DHT22;23596;52.520;13.464;2023-05-10T09:38:00;17.90;85.10
37754;DHT22;23596;52.520;13.464;2023-05-10T09:40:28;18.30;81.80
37754;DHT22;23596;52.520;13.464;2023-05-10T09:43:29;18.20;81.80
37754;DHT22;23596;52.520;13.464;2023-05-10T09:45:48;18.30;82.80
37754;DHT22;23596;52.520;13.464;2023-05-10T09:48:17;18.30;83.50
37754;DHT22;23596;52.520;13.464;2023-05-10T09:50:42;18.30;83.20
37754;DHT22;23596;52.520;13.464;2023-05-10T09:53:08;18.40;83.20
37754;DHT22;23596;52.520;13.464;2023-05-10T09:55:44;18.40;82.50
37754;DHT22;23596;52.520;13.464;2023-05-10T09:58:14;18.40;82.70
37754;DHT22;23596;52.520;13.464;2023-05-10T10:00:42;18.50;82.50
37754;DHT22;23596;52.520;13.464;2023-05-10T10:03:16;18.50;82.60
37754;DHT22;23596;52.520;13.464;2023-05-10T10:05:43;18.70;80.60
37754;DHT22;23596;52.520;13.464;2023-05-10T10:08:09;18.80;81.50
37754;DHT22;23596;52.520;13.464;2023-05-10T10:10:35;18.90;81.10
37754;DHT22;23596;52.520;13.464;2023-05-10T10:13:01;19.00;79.70
37754;DHT22;23596;52.520;13.464;2023-05-10T10:15:27;19.10;80.60
37754;DHT22;23596;52.520;13.464;2023-05-10T10:17:53;19.10;79.80
37754;DHT22;23596;52.520;13.464;2023-05-10T10:20:20;19.20;80.20
37754;DHT22;23596;52.520;13.464;2023-05-10T10:22:47;19.30;80.50
37754;DHT22;23596;52.520;13.464;2023-05-10T10:25:15;19.30;81.00
37754;DHT22;23596;52.520;13.464;2023-05-10T10:30:23;19.30;79.40
37754;DHT22;23596;52.520;13.464;2023-05-10T10:35:45;19.40;80.30
37754;DHT22;23596;52.520;13.464;2023-05-10T10:38:13;19.40;80.70
37754;DHT22;23596;52.520;13.464;2023-05-10T10:40:39;19.40;79.90
37754;DHT22;23596;52.520;13.464;2023-05-10T10:43:24;19.40;79.10
37754;DHT22;23596;52.520;13.464;2023-05-10T10:48:38;19.60;80.40
37754;DHT22;23596;52.520;13.464;2023-05-10T10:51:04;19.70;78.90
37754;DHT22;23596;52.520;13.464;2023-05-10T10:53:30;19.70;80.00
37754;DHT22;23596;52.520;13.464;2023-05-10T10:56:10;19.80;79.90
37754;DHT22;23596;52.520;13.464;2023-05-10T10:58:38;19.90;79.50
37754;DHT22;23596;52.520;13.464;2023-05-10T11:01:19;20.00;79.00
37754;DHT22;23596;52.520;13.464;2023-05-10T11:06:33;20.20;79.60
37754;DHT22;23596;52.520;13.464;2023-05-10T11:08:59;20.30;78.50
37754;DHT22;23596;52.520;13.464;2023-05-10T11:11:25;20.30;78.20
37754;DHT22;23596;52.520;13.464;2023-05-10T11:13:51;20.30;77.80
37754;DHT22;23596;52.520;13.464;2023-05-10T11:16:24;20.50;77.40
37754;DHT22;23596;52.520;13.464;2023-05-10T11:18:54;20.70;77.30
37754;DHT22;23596;52.520;13.464;2023-05-10T11:21:22;20.80;77.40
37754;DHT22;23596;52.520;13.464;2023-05-10T11:23:49;20.90;77.20
37754;DHT22;23596;52.520;13.464;2023-05-10T11:26:15;20.90;78.10
37754;DHT22;23596;52.520;13.464;2023-05-10T11:28:48;20.90;77.80
37754;DHT22;23596;52.520;13.464;2023-05-10T11:31:15;20.90;77.60
37754;DHT22;23596;52.520;13.464;2023-05-10T11:33:52;21.00;76.90
37754;DHT22;23596;52.520;13.464;2023-05-10T11:36:19;21.00;76.40
37754;DHT22;23596;52.520;13.464;2023-05-10T11:38:46;21.30;76.30
37754;DHT22;23596;52.520;13.464;2023-05-10T11:41:12;21.40;75.70
37754;DHT22;23596;52.520;13.464;2023-05-10T11:43:41;21.70;74.70
37754;DHT22;23596;52.520;13.464;2023-05-10T11:46:10;21.80;75.00
37754;DHT22;23596;52.520;13.464;2023-05-10T11:48:39;21.90;75.80
37754;DHT22;23596;52.520;13.464;2023-05-10T11:51:05;21.90;75.60
37754;DHT22;23596;52.520;13.464;2023-05-10T11:53:32;21.80;75.90
37754;DHT22;23596;52.520;13.464;2023-05-10T11:56:05;21.80;75.80
37754;DHT22;23596;52.520;13.464;2023-05-10T11:58:32;22.00;73.90
37754;DHT22;23596;52.520;13.464;2023-05-10T12:00:59;22.20;74.10
37754;DHT22;23596;52.520;13.464;2023-05-10T12:03:26;22.40;73.20
37754;DHT22;23596;52.520;13.464;2023-05-10T12:05:52;22.60;72.30
37754;DHT22;23596;52.520;13.464;2023-05-10T12:08:24;22.80;72.40
37754;DHT22;23596;52.520;13.464;2023-05-10T12:10:51;23.10;72.30
37754;DHT22;23596;52.520;13.464;2023-05-10T12:13:18;23.40;69.80
37754;DHT22;23596;52.520;13.464;2023-05-10T12:15:44;23.50;70.00
37754;DHT22;23596;52.520;13.464;2023-05-10T12:18:11;23.70;70.40
37754;DHT22;23596;52.520;13.464;2023-05-10T12:20:37;24.00;69.10
37754;DHT22;23596;52.520;13.464;2023-05-10T12:23:03;24.20;68.60
37754;DHT22;23596;52.520;13.464;2023-05-10T12:25:34;24.40;67.40
37754;DHT22;23596;52.520;13.464;2023-05-10T12:28:03;24.60;66.00
37754;DHT22;23596;52.520;13.464;2023-05-10T12:30:30;25.10;64.80
37754;DHT22;23596;52.520;13.464;2023-05-10T12:33:08;25.40;65.80
37754;DHT22;23596;52.520;13.464;2023-05-10T12:35:52;25.50;65.40
37754;DHT22;23596;52.520;13.464;2023-05-10T12:38:35;25.80;63.70
37754;DHT22;23596;52.520;13.464;2023-05-10T12:41:07;25.80;63.00
37754;DHT22;23596;52.520;13.464;2023-05-10T12:43:34;25.80;63.70
37754;DHT22;23596;52.520;13.464;2023-05-10T12:46:14;26.10;64.70
37754;DHT22;23596;52.520;13.464;2023-05-10T12:48:41;26.50;62.60
37754;DHT22;23596;52.520;13.464;2023-05-10T12:51:08;26.50;62.60
37754;DHT22;23596;52.520;13.464;2023-05-10T12:53:35;26.80;62.70
37754;DHT22;23596;52.520;13.464;2023-05-10T12:56:01;27.30;61.70
37754;DHT22;23596;52.520;13.464;2023-05-10T12:58:27;27.90;59.20
37754;DHT22;23596;52.520;13.464;2023-05-10T13:00:52;28.50;58.00
37754;DHT22;23596;52.520;13.464;2023-05-10T13:03:18;29.00;57.70
37754;DHT22;23596;52.520;13.464;2023-05-10T13:05:44;29.50;58.60
37754;DHT22;23596;52.520;13.464;2023-05-10T13:08:10;30.00;57.60
37754;DHT22;23596;52.520;13.464;2023-05-10T13:10:35;30.80;55.60
37754;DHT22;23596;52.520;13.464;2023-05-10T13:13:01;30.80;55.90
37754;DHT22;23596;52.520;13.464;2023-05-10T13:15:27;31.10;54.50
37754;DHT22;23596;52.520;13.464;2023-05-10T13:17:53;31.60;54.00
37754;DHT22;23596;52.520;13.464;2023-05-10T13:20:19;32.00;52.70
37754;DHT22;23596;52.520;13.464;2023-05-10T13:22:45;32.20;52.60
37754;DHT22;23596;52.520;13.464;2023-05-10T13:25:11;32.40;51.40
37754;DHT22;23596;52.520;13.464;2023-05-10T13:27:39;32.00;50.50
37754;DHT22;23596;52.520;13.464;2023-05-10T13:30:05;31.80;51.80
37754;DHT22;23596;52.520;13.464;2023-05-10T13:32:31;31.90;52.80
37754;DHT22;23596;52.520;13.464;2023-05-10T13:34:56;32.20;51.80
37754;DHT22;23596;52.520;13.464;2023-05-10T13:37:22;32.50;50.60
37754;DHT22;23596;52.520;13.464;2023-05-10T13:39:48;32.60;50.60
37754;DHT22;23596;52.520;13.464;2023-05-10T13:42:13;32.60;49.90
37754;DHT22;23596;52.520;13.464;2023-05-10T13:44:39;32.40;49.80
37754;DHT22;23596;52.520;13.464;2023-05-10T13:47:06;32.70;49.40
37754;DHT22;23596;52.520;13.464;2023-05-10T13:49:31;33.20;49.00
37754;DHT22;23596;52.520;13.464;2023-05-10T13:51:57;33.60;47.70
37754;DHT22;23596;52.520;13.464;2023-05-10T13:54:23;34.20;48.30
37754;DHT22;23596;52.520;13.464;2023-05-10T13:56:49;34.60;48.00
37754;DHT22;23596;52.520;13.464;2023-05-10T13:59:15;34.70;47.00
37754;DHT22;23596;52.520;13.464;2023-05-10T14:01:41;34.20;46.50
37754;DHT22;23596;52.520;13.464;2023-05-10T14:04:07;33.50;47.30
37754;DHT22;23596;52.520;13.464;2023-05-10T14:06:35;33.10;46.50
37754;DHT22;23596;52.520;13.464;2023-05-10T14:09:01;32.90;47.80
37754;DHT22;23596;52.520;13.464;2023-05-10T14:11:27;33.00;47.80
37754;DHT22;23596;52.520;13.464;2023-05-10T14:13:53;33.20;47.70
37754;DHT22;23596;52.520;13.464;2023-05-10T14:16:19;33.20;47.00
37754;DHT22;23596;52.520;13.464;2023-05-10T14:18:45;33.10;47.30
37754;DHT22;23596;52.520;13.464;2023-05-10T14:21:11;33.50;47.40
37754;DHT22;23596;52.520;13.464;2023-05-10T14:23:36;33.80;46.30
37754;DHT22;23596;52.520;13.464;2023-05-10T14:26:02;33.90;46.50
37754;DHT22;23596;52.520;13.464;2023-05-10T14:28:28;34.30;45.90
37754;DHT22;23596;52.520;13.464;2023-05-10T14:30:53;34.60;45.60
37754;DHT22;23596;52.520;13.464;2023-05-10T14:33:19;34.70;45.50
37754;DHT22;23596;52.520;13.464;2023-05-10T14:35:46;34.80;45.30
37754;DHT22;23596;52.520;13.464;2023-05-10T14:38:12;34.90;44.80
37754;DHT22;23596;52.520;13.464;2023-05-10T14:40:38;34.90;42.80
37754;DHT22;23596;52.520;13.464;2023-05-10T14:43:03;34.90;43.40
37754;DHT22;23596;52.520;13.464;2023-05-10T14:45:29;34.60;43.30
37754;DHT22;23596;52.520;13.464;2023-05-10T14:47:54;34.60;43.30
37754;DHT22;23596;52.520;13.464;2023-05-10T14:50:20;34.20;43.50
37754;DHT22;23596;52.520;13.464;2023-05-10T14:52:46;34.40;45.30
37754;DHT22;23596;52.520;13.464;2023-05-10T14:55:11;34.90;44.40
37754;DHT22;23596;52.520;13.464;2023-05-10T14:57:37;35.20;44.90
37754;DHT22;23596;52.520;13.464;2023-05-10T15:00:03;35.60;44.20
37754;DHT22;23596;52.520;13.464;2023-05-10T15:02:30;35.90;43.50
37754;DHT22;23596;52.520;13.464;2023-05-10T15:04:56;36.10;42.80
37754;DHT22;23596;52.520;13.464;2023-05-10T15:07:23;36.20;43.50
37754;DHT22;23596;52.520;13.464;2023-05-10T15:09:49;36.20;42.60
37754;DHT22;23596;52.520;13.464;2023-05-10T15:12:15;35.80;42.40
37754;DHT22;23596;52.520;13.464;2023-05-10T15:14:41;35.00;42.40
37754;DHT22;23596;52.520;13.464;2023-05-10T15:17:06;34.70;43.00
37754;DHT22;23596;52.520;13.464;2023-05-10T15:19:32;34.70;43.00
37754;DHT22;23596;52.520;13.464;2023-05-10T15:21:58;34.30;42.10
37754;DHT22;23596;52.520;13.464;2023-05-10T15:24:24;33.70;42.60
37754;DHT22;23596;52.520;13.464;2023-05-10T15:26:50;33.30;42.80
37754;DHT22;23596;52.520;13.464;2023-05-10T15:29:15;33.10;42.70
37754;DHT22;23596;52.520;13.464;2023-05-10T15:31:46;32.60;43.00
37754;DHT22;23596;52.520;13.464;2023-05-10T15:34:12;31.80;44.00
37754;DHT22;23596;52.520;13.464;2023-05-10T15:36:38;31.10;44.60
37754;DHT22;23596;52.520;13.464;2023-05-10T15:39:03;30.60;45.60
37754;DHT22;23596;52.520;13.464;2023-05-10T15:41:29;29.90;46.50
37754;DHT22;23596;52.520;13.464;2023-05-10T15:43:55;29.20;47.60
37754;DHT22;23596;52.520;13.464;2023-05-10T15:46:21;28.60;48.10